sensor_id;sensor_type;location;lat;lon;timestamp;temperature;humidity
23629;DHT22;11991;57.150;-2.134;2023-12-20T00:00:37;5.20;99.90
23629;DHT22;11991;57.150;-2.134;2023-12-20T00:03:07;5.20;99.90
23629;DHT22;11991;57.150;-2.134;2023-12-20T00:05:34;5.10;99.90
23629;DHT22;11991;57.150;-2.134;2023-12-20T00:08:03;5.10;99.90
23629;DHT22;11991;57.150;-2.134;2023-12-20T00:10:32;5.10;99.90
23629;DHT22;11991;57.150;-2.134;2023-12-20T00:12:59;5.10;99.90
23629;DHT22;11991;57.150;-2.134;2023-12-20T00:15:26;5.10;99.90
23629;DHT22;11991;57.150;-2.134;2023-12-20T00:17:53;5.10;99.90
23629;DHT22;11991;57.150;-2.134;2023-12-20T00:20:21;5.10;99.90
23629;DHT22;11991;57.150;-2.134;2023-12-20T00:22:48;5.10;99.90
23629;DHT22;11991;57.150;-2.134;2023-12-20T00:25:15;5.10;99.90
23629;DHT22;11991;57.150;-2.134;2023-12-20T00:27:43;5.10;99.90
23629;DHT22;11991;57.150;-2.134;2023-12-20T00:30:11;5.10;99.90
23629;DHT22;11991;57.150;-2.134;2023-12-20T00:32:38;5.10;99.90
23629;DHT22;11991;57.150;-2.134;2023-12-20T00:35:06;5.10;99.90
23629;DHT22;11991;57.150;-2.134;2023-12-20T00:37:33;5.10;99.90
23629;DHT22;11991;57.150;-2.134;2023-12-20T00:40:00;5.20;99.90
23629;DHT22;11991;57.150;-2.134;2023-12-20T00:42:28;5.20;99.90
23629;DHT22;11991;57.150;-2.134;2023-12-20T00:44:55;5.30;99.90
23629;DHT22;11991;57.150;-2.134;2023-12-20T00:47:22;5.30;99.90
23629;DHT22;11991;57.150;-2.134;2023-12-20T00:49:49;5.30;99.90
23629;DHT22;11991;57.150;-2.134;2023-12-20T00:52:17;5.40;99.90
23629;DHT22;11991;57.150;-2.134;2023-12-20T00:54:44;5.40;99.90
23629;DHT22;11991;57.150;-2.134;2023-12-20T00:57:11;5.50;99.90
23629;DHT22;11991;57.150;-2.134;2023-12-20T00:59:38;5.50;99.90
23629;DHT22;11991;57.150;-2.134;2023-12-20T01:02:06;5.40;99.90
23629;DHT22;11991;57.150;-2.134;2023-12-20T01:04:33;5.40;99.90
23629;DHT22;11991;57.150;-2.134;2023-12-20T01:07:00;5.30;99.90
23629;DHT22;11991;57.150;-2.134;2023-12-20T01:09:27;5.10;99.90
23629;DHT22;11991;57.150;-2.134;2023-12-20T01:11:54;4.90;99.90
23629;DHT22;11991;57.150;-2.134;2023-12-20T01:14:22;4.80;99.90
23629;DHT22;11991;57.150;-2.134;2023-12-20T01:16:49;4.70;99.90
23629;DHT22;11991;57.150;-2.134;2023-12-20T01:19:16;4.70;99.90
23629;DHT22;11991;57.150;-2.134;2023-12-20T01:21:43;4.60;99.90
23629;DHT22;11991;57.150;-2.134;2023-12-20T01:24:10;4.60;99.90
23629;DHT22;11991;57.150;-2.134;2023-12-20T01:26:38;4.60;99.90
23629;DHT22;11991;57.150;-2.134;2023-12-20T01:29:05;4.60;99.90
23629;DHT22;11991;57.150;-2.134;2023-12-20T01:31:32;4.60;99.90
23629;DHT22;11991;57.150;-2.134;2023-12-20T01:33:59;4.60;99.90
23629;DHT22;11991;57.150;-2.134;2023-12-20T01:36:27;4.60;99.90
23629;DHT22;11991;57.150;-2.134;2023-12-20T01:38:54;4.60;99.90
23629;DHT22;11991;57.150;-2.134;2023-12-20T01:41:21;4.60;99.90
23629;DHT22;11991;57.150;-2.134;2023-12-20T01:43:48;4.50;99.90
23629;DHT22;11991;57.150;-2.134;2023-12-20T01:46:19;4.50;99.90
23629;DHT22;11991;57.150;-2.134;2023-12-20T01:48:48;4.50;99.90
23629;DHT22;11991;57.150;-2.134;2023-12-20T01:51:16;4.50;99.90
23629;DHT22;11991;57.150;-2.134;2023-12-20T01:53:43;4.50;99.90
23629;DHT22;11991;57.150;-2.134;2023-12-20T01:56:11;4.50;99.90
23629;DHT22;11991;57.150;-2.134;2023-12-20T01:58:43;4.50;99.90
23629;DHT22;11991;57.150;-2.134;2023-12-20T02:01:12;4.50;99.90
23629;DHT22;11991;57.150;-2.134;2023-12-20T02:03:43;4.50;99.90
23629;DHT22;11991;57.150;-2.134;2023-12-20T02:06:11;4.50;99.90
23629;DHT22;11991;57.150;-2.134;2023-12-20T02:08:38;4.50;99.90
23629;DHT22;11991;57.150;-2.134;2023-12-20T02:11:06;4.50;99.90
23629;DHT22;11991;57.150;-2.134;2023-12-20T02:13:33;4.60;99.90
23629;DHT22;11991;57.150;-2.134;2023-12-20T02:16:00;4.50;99.90
23629;DHT22;11991;57.150;-2.134;2023-12-20T02:18:28;4.60;99.90
23629;DHT22;11991;57.150;-2.134;2023-12-20T02:20:55;4.60;99.90
23629;DHT22;11991;57.150;-2.134;2023-12-20T02:23:23;4.60;99.90
23629;DHT22;11991;57.150;-2.134;2023-12-20T02:25:50;4.60;99.90
23629;DHT22;11991;57.150;-2.134;2023-12-20T02:28:17;4.70;99.90
23629;DHT22;11991;57.150;-2.134;2023-12-20T02:30:45;4.70;99.90
23629;DHT22;11991;57.150;-2.134;2023-12-20T02:33:14;4.80;99.90
23629;DHT22;11991;57.150;-2.134;2023-12-20T02:35:42;4.80;99.90
23629;DHT22;11991;57.150;-2.134;2023-12-20T02:38:09;4.80;99.90
23629;DHT22;11991;57.150;-2.134;2023-12-20T02:40:36;4.90;99.90
23629;DHT22;11991;57.150;-2.134;2023-12-20T02:43:03;4.90;99.90
23629;DHT22;11991;57.150;-2.134;2023-12-20T02:45:31;4.90;99.90
23629;DHT22;11991;57.150;-2.134;2023-12-20T02:47:58;4.90;99.90
23629;DHT22;11991;57.150;-2.134;2023-12-20T02:50:25;4.90;99.90
23629;DHT22;11991;57.150;-2.134;2023-12-20T02:52:52;4.90;99.90
23629;DHT22;11991;57.150;-2.134;2023-12-20T02:55:19;4.80;99.90
23629;DHT22;11991;57.150;-2.134;2023-12-20T02:57:47;4.80;99.90
23629;DHT22;11991;57.150;-2.134;2023-12-20T03:00:14;4.80;99.90
23629;DHT22;11991;57.150;-2.134;2023-12-20T03:02:41;4.80;99.90
23629;DHT22;11991;57.150;-2.134;2023-12-20T03:05:09;4.80;99.90
23629;DHT22;11991;57.150;-2.134;2023-12-20T03:07:37;4.70;99.90
23629;DHT22;11991;57.150;-2.134;2023-12-20T03:10:05;4.70;99.90
23629;DHT22;11991;57.150;-2.134;2023-12-20T03:12:46;4.50;99.90
23629;DHT22;11991;57.150;-2.134;2023-12-20T03:15:13;4.20;99.90
23629;DHT22;11991;57.150;-2.134;2023-12-20T03:17:40;4.10;99.90
23629;DHT22;11991;57.150;-2.134;2023-12-20T03:20:09;4.00;99.90
23629;DHT22;11991;57.150;-2.134;2023-12-20T03:22:36;4.00;99.90
23629;DHT22;11991;57.150;-2.134;2023-12-20T03:25:03;4.00;99.90
23629;DHT22;11991;57.150;-2.134;2023-12-20T03:27:30;4.00;99.90
23629;DHT22;11991;57.150;-2.134;2023-12-20T03:29:58;4.00;99.90
23629;DHT22;11991;57.150;-2.134;2023-12-20T03:32:25;4.10;99.90
23629;DHT22;11991;57.150;-2.134;2023-12-20T03:34:52;4.20;99.90
23629;DHT22;11991;57.150;-2.134;2023-12-20T03:37:19;4.20;99.90
23629;DHT22;11991;57.150;-2.134;2023-12-20T03:39:46;4.30;99.90
23629;DHT22;11991;57.150;-2.134;2023-12-20T03:42:14;4.30;99.90
23629;DHT22;11991;57.150;-2.134;2023-12-20T03:44:41;4.40;99.90
23629;DHT22;11991;57.150;-2.134;2023-12-20T03:47:08;4.40;99.90
23629;DHT22;11991;57.150;-2.134;2023-12-20T03:49:35;4.50;99.90
23629;DHT22;11991;57.150;-2.134;2023-12-20T03:52:04;4.50;99.90
23629;DHT22;11991;57.150;-2.134;2023-12-20T03:54:32;4.50;99.90
23629;DHT22;11991;57.150;-2.134;2023-12-20T03:57:00;4.50;99.90
23629;DHT22;11991;57.150;-2.134;2023-12-20T03:59:27;4.50;99.90
23629;DHT22;11991;57.150;-2.134;2023-12-20T04:01:54;4.50;99.90
23629;DHT22;11991;57.150;-2.134;2023-12-20T04:04:21;4.60;99.90
23629;DHT22;11991;57.150;-2.134;2023-12-20T04:06:48;4.60;99.90
23629;DHT22;11991;57.150;-2.134;2023-12-20T04:09:16;4.60;99.90
23629;DHT22;11991;57.150;-2.134;2023-12-20T04:11:43;4.60;99.90
23629;DHT22;11991;57.150;-2.134;2023-12-20T04:14:10;4.50;99.90
23629;DHT22;11991;57.150;-2.134;2023-12-20T04:16:37;4.50;99.90
23629;DHT22;11991;57.150;-2.134;2023-12-20T04:19:05;4.50;99.90
23629;DHT22;11991;57.150;-2.134;2023-12-20T04:21:33;4.50;99.90
23629;DHT22;11991;57.150;-2.134;2023-12-20T04:24:00;4.50;99.90
23629;DHT22;11991;57.150;-2.134;2023-12-20T04:26:27;4.50;99.90
23629;DHT22;11991;57.150;-2.134;2023-12-20T04:28:54;4.50;99.90
23629;DHT22;11991;57.150;-2.134;2023-12-20T04:31:21;4.50;99.90
23629;DHT22;11991;57.150;-2.134;2023-12-20T04:33:49;4.60;99.90
23629;DHT22;11991;57.150;-2.134;2023-12-20T04:36:16;4.50;99.90
23629;DHT22;11991;57.150;-2.134;2023-12-20T04:38:43;4.60;99.90
23629;DHT22;11991;57.150;-2.134;2023-12-20T04:41:10;4.60;99.90
23629;DHT22;11991;57.150;-2.134;2023-12-20T04:43:37;4.60;99.90
23629;DHT22;11991;57.150;-2.134;2023-12-20T04:46:04;4.70;99.90
23629;DHT22;11991;57.150;-2.134;2023-12-20T04:48:32;4.60;99.90
23629;DHT22;11991;57.150;-2.134;2023-12-20T04:50:59;4.70;99.90
23629;DHT22;11991;57.150;-2.134;2023-12-20T04:53:26;4.70;99.90
23629;DHT22;11991;57.150;-2.134;2023-12-20T04:55:54;4.70;99.90
23629;DHT22;11991;57.150;-2.134;2023-12-20T04:58:21;4.80;99.90
23629;DHT22;11991;57.150;-2.134;2023-12-20T05:00:48;4.80;99.90
23629;DHT22;11991;57.150;-2.134;2023-12-20T05:03:16;4.80;99.90
23629;DHT22;11991;57.150;-2.134;2023-12-20T05:05:43;4.80;99.90
23629;DHT22;11991;57.150;-2.134;2023-12-20T05:08:10;4.80;99.90
23629;DHT22;11991;57.150;-2.134;2023-12-20T05:10:37;4.80;99.90
23629;DHT22;11991;57.150;-2.134;2023-12-20T05:13:04;4.80;99.90
23629;DHT22;11991;57.150;-2.134;2023-12-20T05:15:32;4.80;99.90
23629;DHT22;11991;57.150;-2.134;2023-12-20T05:17:59;4.80;99.90
23629;DHT22;11991;57.150;-2.134;2023-12-20T05:20:26;4.80;99.90
23629;DHT22;11991;57.150;-2.134;2023-12-20T05:22:53;4.80;99.90
23629;DHT22;11991;57.150;-2.134;2023-12-20T05:25:20;4.80;99.90
23629;DHT22;11991;57.150;-2.134;2023-12-20T05:27:48;4.80;99.90
23629;DHT22;11991;57.150;-2.134;2023-12-20T05:30:16;4.80;99.90
23629;DHT22;11991;57.150;-2.134;2023-12-20T05:32:43;4.90;99.90
23629;DHT22;11991;57.150;-2.134;2023-12-20T05:35:10;4.90;99.90
23629;DHT22;11991;57.150;-2.134;2023-12-20T05:37:37;4.90;99.90
23629;DHT22;11991;57.150;-2.134;2023-12-20T05:40:05;4.90;99.90
23629;DHT22;11991;57.150;-2.134;2023-12-20T05:42:32;4.90;99.90
23629;DHT22;11991;57.150;-2.134;2023-12-20T05:44:59;4.90;99.90
23629;DHT22;11991;57.150;-2.134;2023-12-20T05:47:26;4.90;99.90
23629;DHT22;11991;57.150;-2.134;2023-12-20T05:49:54;4.90;99.90
23629;DHT22;11991;57.150;-2.134;2023-12-20T05:52:21;4.90;99.90
23629;DHT22;11991;57.150;-2.134;2023-12-20T05:54:49;4.90;99.90
23629;DHT22;11991;57.150;-2.134;2023-12-20T05:57:16;4.80;99.90
23629;DHT22;11991;57.150;-2.134;2023-12-20T05:59:43;4.80;99.90
23629;DHT22;11991;57.150;-2.134;2023-12-20T06:02:10;4.80;99.90
23629;DHT22;11991;57.150;-2.134;2023-12-20T06:04:37;4.80;99.90
23629;DHT22;11991;57.150;-2.134;2023-12-20T06:07:11;4.80;99.90
23629;DHT22;11991;57.150;-2.134;2023-12-20T06:09:38;4.70;99.90
23629;DHT22;11991;57.150;-2.134;2023-12-20T06:12:06;4.70;99.90
23629;DHT22;11991;57.150;-2.134;2023-12-20T06:14:34;4.80;99.90
23629;DHT22;11991;57.150;-2.134;2023-12-20T06:17:02;4.80;99.90
23629;DHT22;11991;57.150;-2.134;2023-12-20T06:19:29;4.80;99.90
23629;DHT22;11991;57.150;-2.134;2023-12-20T06:21:56;4.90;99.90
23629;DHT22;11991;57.150;-2.134;2023-12-20T06:24:24;4.90;99.90
23629;DHT22;11991;57.150;-2.134;2023-12-20T06:26:54;5.00;99.90
23629;DHT22;11991;57.150;-2.134;2023-12-20T06:29:22;5.00;99.90
23629;DHT22;11991;57.150;-2.134;2023-12-20T06:31:50;5.00;99.90
23629;DHT22;11991;57.150;-2.134;2023-12-20T06:34:17;5.10;99.90
23629;DHT22;11991;57.150;-2.134;2023-12-20T06:36:44;5.10;99.90
23629;DHT22;11991;57.150;-2.134;2023-12-20T06:39:11;5.10;99.90
23629;DHT22;11991;57.150;-2.134;2023-12-20T06:41:39;5.10;99.90
23629;DHT22;11991;57.150;-2.134;2023-12-20T06:44:07;5.10;99.90
23629;DHT22;11991;57.150;-2.134;2023-12-20T06:46:34;5.10;99.90
23629;DHT22;11991;57.150;-2.134;2023-12-20T06:49:02;5.10;99.90
23629;DHT22;11991;57.150;-2.134;2023-12-20T06:51:29;5.10;99.90
23629;DHT22;11991;57.150;-2.134;2023-12-20T06:53:57;5.10;99.90
23629;DHT22;11991;57.150;-2.134;2023-12-20T06:56:25;5.10;99.90
23629;DHT22;11991;57.150;-2.134;2023-12-20T06:58:52;5.10;99.90
23629;DHT22;11991;57.150;-2.134;2023-12-20T07:01:19;5.10;99.90
23629;DHT22;11991;57.150;-2.134;2023-12-20T07:03:46;5.10;99.90
23629;DHT22;11991;57.150;-2.134;2023-12-20T07:06:13;5.00;99.90
23629;DHT22;11991;57.150;-2.134;2023-12-20T07:08:43;5.00;99.90
23629;DHT22;11991;57.150;-2.134;2023-12-20T07:11:11;5.10;99.90
23629;DHT22;11991;57.150;-2.134;2023-12-20T07:13:38;5.10;99.90
23629;DHT22;11991;57.150;-2.134;2023-12-20T07:16:05;5.10;99.90
23629;DHT22;11991;57.150;-2.134;2023-12-20T07:18:33;5.10;99.90
23629;DHT22;11991;57.150;-2.134;2023-12-20T07:21:00;5.10;99.90
23629;DHT22;11991;57.150;-2.134;2023-12-20T07:23:27;5.20;99.90
23629;DHT22;11991;57.150;-2.134;2023-12-20T07:25:55;5.20;99.90
23629;DHT22;11991;57.150;-2.134;2023-12-20T07:28:22;5.20;99.90
23629;DHT22;11991;57.150;-2.134;2023-12-20T07:30:49;5.20;99.90
23629;DHT22;11991;57.150;-2.134;2023-12-20T07:33:16;5.20;99.90
23629;DHT22;11991;57.150;-2.134;2023-12-20T07:35:44;5.20;99.90
23629;DHT22;11991;57.150;-2.134;2023-12-20T07:38:12;5.20;99.90
23629;DHT22;11991;57.150;-2.134;2023-12-20T07:40:39;5.20;99.90
23629;DHT22;11991;57.150;-2.134;2023-12-20T07:43:06;5.20;99.90
23629;DHT22;11991;57.150;-2.134;2023-12-20T07:45:34;5.20;99.90
23629;DHT22;11991;57.150;-2.134;2023-12-20T07:48:01;5.20;99.90
23629;DHT22;11991;57.150;-2.134;2023-12-20T07:50:28;5.30;99.90
23629;DHT22;11991;57.150;-2.134;2023-12-20T07:52:56;5.30;99.90
23629;DHT22;11991;57.150;-2.134;2023-12-20T07:55:23;5.30;99.90
23629;DHT22;11991;57.150;-2.134;2023-12-20T07:57:50;5.30;99.90
23629;DHT22;11991;57.150;-2.134;2023-12-20T08:00:18;5.30;99.90
23629;DHT22;11991;57.150;-2.134;2023-12-20T08:02:45;5.30;99.90
23629;DHT22;11991;57.150;-2.134;2023-12-20T08:05:13;5.30;99.90
23629;DHT22;11991;57.150;-2.134;2023-12-20T08:07:42;5.30;99.90
23629;DHT22;11991;57.150;-2.134;2023-12-20T08:10:10;5.40;99.90
23629;DHT22;11991;57.150;-2.134;2023-12-20T08:12:38;5.40;99.90
23629;DHT22;11991;57.150;-2.134;2023-12-20T08:15:07;5.40;99.90
23629;DHT22;11991;57.150;-2.134;2023-12-20T08:17:34;5.40;99.90
23629;DHT22;11991;57.150;-2.134;2023-12-20T08:20:01;5.40;99.90
23629;DHT22;11991;57.150;-2.134;2023-12-20T08:22:29;5.40;99.90
23629;DHT22;11991;57.150;-2.134;2023-12-20T08:24:56;5.50;99.90
23629;DHT22;11991;57.150;-2.134;2023-12-20T08:27:23;5.50;99.90
23629;DHT22;11991;57.150;-2.134;2023-12-20T08:29:52;5.50;99.90
23629;DHT22;11991;57.150;-2.134;2023-12-20T08:32:19;5.50;99.90
23629;DHT22;11991;57.150;-2.134;2023-12-20T08:34:46;5.60;99.90
23629;DHT22;11991;57.150;-2.134;2023-12-20T08:37:14;5.60;99.90
23629;DHT22;11991;57.150;-2.134;2023-12-20T08:39:41;5.70;99.90
23629;DHT22;11991;57.150;-2.134;2023-12-20T08:42:11;5.70;99.90
23629;DHT22;11991;57.150;-2.134;2023-12-20T08:44:38;5.70;99.90
23629;DHT22;11991;57.150;-2.134;2023-12-20T08:47:06;5.70;99.90
23629;DHT22;11991;57.150;-2.134;2023-12-20T08:49:33;5.80;99.90
23629;DHT22;11991;57.150;-2.134;2023-12-20T08:52:00;5.80;99.90
23629;DHT22;11991;57.150;-2.134;2023-12-20T08:54:27;5.80;99.90
23629;DHT22;11991;57.150;-2.134;2023-12-20T08:56:54;5.80;99.90
23629;DHT22;11991;57.150;-2.134;2023-12-20T08:59:22;5.80;99.90
23629;DHT22;11991;57.150;-2.134;2023-12-20T09:01:49;5.80;99.90
23629;DHT22;11991;57.150;-2.134;2023-12-20T09:04:21;5.70;99.90
23629;DHT22;11991;57.150;-2.134;2023-12-20T09:06:48;5.80;99.90
23629;DHT22;11991;57.150;-2.134;2023-12-20T09:09:15;5.80;99.90
23629;DHT22;11991;57.150;-2.134;2023-12-20T09:11:43;5.80;99.90
23629;DHT22;11991;57.150;-2.134;2023-12-20T09:14:13;5.80;99.90
23629;DHT22;11991;57.150;-2.134;2023-12-20T09:16:40;5.80;99.90
23629;DHT22;11991;57.150;-2.134;2023-12-20T09:19:07;5.80;99.90
23629;DHT22;11991;57.150;-2.134;2023-12-20T09:21:34;5.80;99.90
23629;DHT22;11991;57.150;-2.134;2023-12-20T09:24:01;5.80;99.90
23629;DHT22;11991;57.150;-2.134;2023-12-20T09:26:29;5.80;99.90
23629;DHT22;11991;57.150;-2.134;2023-12-20T09:28:56;5.90;99.90
23629;DHT22;11991;57.150;-2.134;2023-12-20T09:31:23;5.90;99.90
23629;DHT22;11991;57.150;-2.134;2023-12-20T09:33:50;5.90;99.90
23629;DHT22;11991;57.150;-2.134;2023-12-20T09:36:18;5.90;99.90
23629;DHT22;11991;57.150;-2.134;2023-12-20T09:38:45;5.90;99.90
23629;DHT22;11991;57.150;-2.134;2023-12-20T09:41:13;5.90;99.90
23629;DHT22;11991;57.150;-2.134;2023-12-20T09:43:41;5.90;99.90
23629;DHT22;11991;57.150;-2.134;2023-12-20T09:46:10;5.90;99.90
23629;DHT22;11991;57.150;-2.134;2023-12-20T09:48:39;5.90;99.90
23629;DHT22;11991;57.150;-2.134;2023-12-20T09:51:07;5.80;99.90
23629;DHT22;11991;57.150;-2.134;2023-12-20T09:53:37;5.80;99.90
23629;DHT22;11991;57.150;-2.134;2023-12-20T09:56:07;5.80;99.90
23629;DHT22;11991;57.150;-2.134;2023-12-20T09:58:37;5.80;99.90
23629;DHT22;11991;57.150;-2.134;2023-12-20T10:01:06;5.80;99.90
23629;DHT22;11991;57.150;-2.134;2023-12-20T10:03:34;5.80;99.90
23629;DHT22;11991;57.150;-2.134;2023-12-20T10:06:01;5.80;99.90
23629;DHT22;11991;57.150;-2.134;2023-12-20T10:08:29;5.80;99.90
23629;DHT22;11991;57.150;-2.134;2023-12-20T10:10:57;5.80;99.90
23629;DHT22;11991;57.150;-2.134;2023-12-20T10:13:29;5.80;99.90
23629;DHT22;11991;57.150;-2.134;2023-12-20T10:15:56;5.80;99.90
23629;DHT22;11991;57.150;-2.134;2023-12-20T10:18:24;5.80;99.90
23629;DHT22;11991;57.150;-2.134;2023-12-20T10:21:06;5.80;99.90
23629;DHT22;11991;57.150;-2.134;2023-12-20T10:23:34;5.80;99.90
23629;DHT22;11991;57.150;-2.134;2023-12-20T10:26:01;5.80;99.90
23629;DHT22;11991;57.150;-2.134;2023-12-20T10:28:34;5.70;99.90
23629;DHT22;11991;57.150;-2.134;2023-12-20T10:31:02;5.70;99.90
23629;DHT22;11991;57.150;-2.134;2023-12-20T10:33:30;5.60;99.90
23629;DHT22;11991;57.150;-2.134;2023-12-20T10:35:59;5.60;99.90
23629;DHT22;11991;57.150;-2.134;2023-12-20T10:38:27;5.60;99.90
23629;DHT22;11991;57.150;-2.134;2023-12-20T10:40:57;5.60;99.90
23629;DHT22;11991;57.150;-2.134;2023-12-20T10:43:28;5.60;99.90
23629;DHT22;11991;57.150;-2.134;2023-12-20T10:45:58;5.60;99.90
23629;DHT22;11991;57.150;-2.134;2023-12-20T10:48:26;5.60;99.90
23629;DHT22;11991;57.150;-2.134;2023-12-20T10:50:58;5.60;99.90
23629;DHT22;11991;57.150;-2.134;2023-12-20T10:53:25;5.60;99.90
23629;DHT22;11991;57.150;-2.134;2023-12-20T10:55:55;5.60;99.90
23629;DHT22;11991;57.150;-2.134;2023-12-20T10:58:24;5.50;99.90
23629;DHT22;11991;57.150;-2.134;2023-12-20T11:01:00;5.50;99.90
23629;DHT22;11991;57.150;-2.134;2023-12-20T11:03:36;5.50;99.90
23629;DHT22;11991;57.150;-2.134;2023-12-20T11:09:06;5.50;99.90
23629;DHT22;11991;57.150;-2.134;2023-12-20T11:14:15;5.50;99.90
23629;DHT22;11991;57.150;-2.134;2023-12-20T11:16:45;5.50;99.90
23629;DHT22;11991;57.150;-2.134;2023-12-20T11:19:21;5.50;99.90
23629;DHT22;11991;57.150;-2.134;2023-12-20T11:21:48;5.50;99.90
23629;DHT22;11991;57.150;-2.134;2023-12-20T11:24:16;5.50;99.90
23629;DHT22;11991;57.150;-2.134;2023-12-20T11:26:47;5.50;99.90
23629;DHT22;11991;57.150;-2.134;2023-12-20T11:29:35;5.50;99.90
23629;DHT22;11991;57.150;-2.134;2023-12-20T11:32:03;5.50;99.90
23629;DHT22;11991;57.150;-2.134;2023-12-20T11:37:21;5.50;99.90
23629;DHT22;11991;57.150;-2.134;2023-12-20T11:39:55;5.50;99.90
23629;DHT22;11991;57.150;-2.134;2023-12-20T11:42:23;5.60;99.90
23629;DHT22;11991;57.150;-2.134;2023-12-20T11:44:50;5.60;99.90
23629;DHT22;11991;57.150;-2.134;2023-12-20T11:47:18;5.60;99.90
23629;DHT22;11991;57.150;-2.134;2023-12-20T11:49:49;5.60;99.90
23629;DHT22;11991;57.150;-2.134;2023-12-20T11:52:18;5.70;99.90
23629;DHT22;11991;57.150;-2.134;2023-12-20T11:54:45;5.70;99.90
23629;DHT22;11991;57.150;-2.134;2023-12-20T11:57:12;5.70;99.90
23629;DHT22;11991;57.150;-2.134;2023-12-20T11:59:39;5.80;99.90
23629;DHT22;11991;57.150;-2.134;2023-12-20T12:02:07;5.80;99.90
23629;DHT22;11991;57.150;-2.134;2023-12-20T12:04:34;5.80;99.90
23629;DHT22;11991;57.150;-2.134;2023-12-20T12:07:02;5.80;99.90
23629;DHT22;11991;57.150;-2.134;2023-12-20T12:09:30;5.80;99.90
23629;DHT22;11991;57.150;-2.134;2023-12-20T12:11:57;5.80;99.90
23629;DHT22;11991;57.150;-2.134;2023-12-20T12:14:24;5.80;99.90
23629;DHT22;11991;57.150;-2.134;2023-12-20T12:16:52;5.90;99.90
23629;DHT22;11991;57.150;-2.134;2023-12-20T12:19:24;5.90;99.90
23629;DHT22;11991;57.150;-2.134;2023-12-20T12:22:07;5.90;99.90
23629;DHT22;11991;57.150;-2.134;2023-12-20T12:24:48;5.90;99.90
23629;DHT22;11991;57.150;-2.134;2023-12-20T12:27:16;5.90;99.90
23629;DHT22;11991;57.150;-2.134;2023-12-20T12:30:04;5.90;99.90
23629;DHT22;11991;57.150;-2.134;2023-12-20T12:32:32;5.90;99.90
23629;DHT22;11991;57.150;-2.134;2023-12-20T12:35:00;5.90;99.90
23629;DHT22;11991;57.150;-2.134;2023-12-20T12:37:27;5.90;99.90
23629;DHT22;11991;57.150;-2.134;2023-12-20T12:39:55;5.90;99.90
23629;DHT22;11991;57.150;-2.134;2023-12-20T12:42:22;5.90;99.90
23629;DHT22;11991;57.150;-2.134;2023-12-20T12:44:52;5.90;99.90
23629;DHT22;11991;57.150;-2.134;2023-12-20T12:47:19;6.00;99.90
23629;DHT22;11991;57.150;-2.134;2023-12-20T12:49:47;6.00;99.90
23629;DHT22;11991;57.150;-2.134;2023-12-20T12:52:14;6.00;99.90
23629;DHT22;11991;57.150;-2.134;2023-12-20T12:54:41;6.00;99.90
23629;DHT22;11991;57.150;-2.134;2023-12-20T12:57:09;6.00;99.90
23629;DHT22;11991;57.150;-2.134;2023-12-20T12:59:36;6.00;99.90
23629;DHT22;11991;57.150;-2.134;2023-12-20T13:02:07;6.10;99.90
23629;DHT22;11991;57.150;-2.134;2023-12-20T13:04:35;6.10;99.90
23629;DHT22;11991;57.150;-2.134;2023-12-20T13:07:03;6.20;99.90
23629;DHT22;11991;57.150;-2.134;2023-12-20T13:09:30;6.20;99.90
23629;DHT22;11991;57.150;-2.134;2023-12-20T13:11:57;6.20;99.90
23629;DHT22;11991;57.150;-2.134;2023-12-20T13:14:25;6.20;99.90
23629;DHT22;11991;57.150;-2.134;2023-12-20T13:16:53;6.30;99.90
23629;DHT22;11991;57.150;-2.134;2023-12-20T13:19:20;6.30;99.90
23629;DHT22;11991;57.150;-2.134;2023-12-20T13:21:48;6.30;99.90
23629;DHT22;11991;57.150;-2.134;2023-12-20T13:24:15;6.40;99.90
23629;DHT22;11991;57.150;-2.134;2023-12-20T13:26:42;6.40;99.90
23629;DHT22;11991;57.150;-2.134;2023-12-20T13:29:10;6.40;99.90
23629;DHT22;11991;57.150;-2.134;2023-12-20T13:31:37;6.50;99.90
23629;DHT22;11991;57.150;-2.134;2023-12-20T13:34:06;6.50;99.90
23629;DHT22;11991;57.150;-2.134;2023-12-20T13:36:33;6.50;99.90
23629;DHT22;11991;57.150;-2.134;2023-12-20T13:39:00;6.50;99.90
23629;DHT22;11991;57.150;-2.134;2023-12-20T13:41:29;6.60;99.90
23629;DHT22;11991;57.150;-2.134;2023-12-20T13:43:57;6.60;99.90
23629;DHT22;11991;57.150;-2.134;2023-12-20T13:46:24;6.70;99.90
23629;DHT22;11991;57.150;-2.134;2023-12-20T13:48:51;6.80;99.90
23629;DHT22;11991;57.150;-2.134;2023-12-20T13:51:18;6.90;99.90
23629;DHT22;11991;57.150;-2.134;2023-12-20T13:53:45;7.00;99.90
23629;DHT22;11991;57.150;-2.134;2023-12-20T13:56:13;7.00;99.90
23629;DHT22;11991;57.150;-2.134;2023-12-20T13:58:40;7.10;99.90
23629;DHT22;11991;57.150;-2.134;2023-12-20T14:01:09;7.20;99.90
23629;DHT22;11991;57.150;-2.134;2023-12-20T14:03:38;7.20;99.90
23629;DHT22;11991;57.150;-2.134;2023-12-20T14:06:05;7.30;99.90
23629;DHT22;11991;57.150;-2.134;2023-12-20T14:08:32;7.30;99.90
23629;DHT22;11991;57.150;-2.134;2023-12-20T14:10:59;7.30;99.90
23629;DHT22;11991;57.150;-2.134;2023-12-20T14:13:28;7.30;99.90
23629;DHT22;11991;57.150;-2.134;2023-12-20T14:15:55;7.30;99.90
23629;DHT22;11991;57.150;-2.134;2023-12-20T14:18:22;7.40;99.90
23629;DHT22;11991;57.150;-2.134;2023-12-20T14:20:49;7.40;99.90
23629;DHT22;11991;57.150;-2.134;2023-12-20T14:23:17;7.30;99.90
23629;DHT22;11991;57.150;-2.134;2023-12-20T14:25:44;7.40;99.90
23629;DHT22;11991;57.150;-2.134;2023-12-20T14:28:19;7.40;99.90
23629;DHT22;11991;57.150;-2.134;2023-12-20T14:30:46;7.40;99.90
23629;DHT22;11991;57.150;-2.134;2023-12-20T14:33:14;7.40;99.90
23629;DHT22;11991;57.150;-2.134;2023-12-20T14:35:41;7.40;99.90
23629;DHT22;11991;57.150;-2.134;2023-12-20T14:38:11;7.40;99.90
23629;DHT22;11991;57.150;-2.134;2023-12-20T14:40:42;7.40;99.90
23629;DHT22;11991;57.150;-2.134;2023-12-20T14:43:09;7.40;99.90
23629;DHT22;11991;57.150;-2.134;2023-12-20T14:45:37;7.50;99.90
23629;DHT22;11991;57.150;-2.134;2023-12-20T14:48:04;7.50;99.90
23629;DHT22;11991;57.150;-2.134;2023-12-20T14:50:32;7.50;99.90
23629;DHT22;11991;57.150;-2.134;2023-12-20T14:52:59;7.50;99.90
23629;DHT22;11991;57.150;-2.134;2023-12-20T14:55:26;7.50;99.90
23629;DHT22;11991;57.150;-2.134;2023-12-20T14:57:55;7.60;99.90
23629;DHT22;11991;57.150;-2.134;2023-12-20T15:00:23;7.60;99.90
23629;DHT22;11991;57.150;-2.134;2023-12-20T15:02:50;7.70;99.90
23629;DHT22;11991;57.150;-2.134;2023-12-20T15:05:18;7.80;99.90
23629;DHT22;11991;57.150;-2.134;2023-12-20T15:07:45;7.80;99.90
23629;DHT22;11991;57.150;-2.134;2023-12-20T15:10:16;7.90;99.90
23629;DHT22;11991;57.150;-2.134;2023-12-20T15:12:46;8.00;99.90
23629;DHT22;11991;57.150;-2.134;2023-12-20T15:15:13;8.10;99.90
23629;DHT22;11991;57.150;-2.134;2023-12-20T15:17:41;8.10;99.90
23629;DHT22;11991;57.150;-2.134;2023-12-20T15:20:08;8.10;99.90
23629;DHT22;11991;57.150;-2.134;2023-12-20T15:22:38;8.10;99.90
23629;DHT22;11991;57.150;-2.134;2023-12-20T15:25:07;8.20;99.90
23629;DHT22;11991;57.150;-2.134;2023-12-20T15:27:35;8.20;99.90
23629;DHT22;11991;57.150;-2.134;2023-12-20T15:30:06;8.20;99.90
23629;DHT22;11991;57.150;-2.134;2023-12-20T15:32:35;8.20;99.90
23629;DHT22;11991;57.150;-2.134;2023-12-20T15:35:04;8.10;99.90
23629;DHT22;11991;57.150;-2.134;2023-12-20T15:37:32;8.10;99.90
23629;DHT22;11991;57.150;-2.134;2023-12-20T15:39:59;8.20;99.90
23629;DHT22;11991;57.150;-2.134;2023-12-20T15:42:33;8.20;99.90